Time;durP1;ratioP1;P1;durP2;ratioP2;P2;SDS_P1;SDS_P2;PMS_P1;PMS_P2;Temp;Humidity;BMP_temperature;BMP_pressure;BME280_temperature;BME280_humidity;BME280_pressure;Samples;Min_cycle;Max_cycle;Signal;HPM_P1;HPM_P2
2022/08/12 00:44:10;;;;;;;5.65;3.85;;;18.10;81.20;;;;;;5082609;28;20102;-45
2022/08/12 00:46:59;;;;;;;4.47;3.67;;;18.00;81.20;;;;;;5091130;28;20330;-46
2022/08/12 00:49:26;;;;;;;4.85;4.35;;;18.00;81.60;;;;;;5090416;28;20036;-46
2022/08/12 00:52:08;;;;;;;4.40;4.00;;;18.00;81.90;;;;;;5089839;28;20176;-47
2022/08/12 00:54:45;;;;;;;5.32;3.80;;;18.00;81.00;;;;;;5091111;28;20020;-47
2022/08/12 00:57:17;;;;;;;4.65;3.95;;;18.00;81.20;;;;;;5090773;28;20020;-46
2022/08/12 00:59:55;;;;;;;4.50;3.75;;;18.00;81.00;;;;;;5090236;28;20520;-46
2022/08/12 01:02:30;;;;;;;10.00;3.92;;;18.10;80.60;;;;;;5090140;28;20077;-46
2022/08/12 01:13:21;;;;;;;6.75;3.88;;;18.10;80.00;;;;;;5070538;28;20059;-44
2022/08/12 01:16:07;;;;;;;4.55;3.70;;;18.10;80.70;;;;;;5065687;28;20049;-44
2022/08/12 01:18:35;;;;;;;5.57;3.58;;;18.10;81.30;;;;;;5080967;28;20024;-45
2022/08/12 01:21:26;;;;;;;5.03;3.80;;;18.00;80.90;;;;;;5089416;28;20020;-46
2022/08/12 01:24:37;;;;;;;4.88;3.65;;;18.00;81.90;;;;;;5087886;28;20024;-44
2022/08/12 01:27:03;;;;;;;6.90;4.03;;;18.00;82.20;;;;;;5026883;28;20555;-45
2022/08/12 01:29:30;;;;;;;4.95;3.67;;;17.90;82.20;;;;;;5063387;28;20068;-46
2022/08/12 01:31:58;;;;;;;4.00;3.60;;;17.80;82.10;;;;;;5067258;28;20491;-45
2022/08/12 01:34:31;;;;;;;5.03;3.88;;;17.80;82.40;;;;;;5069324;28;20029;-45
2022/08/12 01:36:59;;;;;;;5.72;4.07;;;17.70;82.80;;;;;;5069289;28;20013;-44
2022/08/12 01:39:36;;;;;;;5.38;4.20;;;17.70;83.40;;;;;;5074485;28;20063;-45
2022/08/12 01:42:07;;;;;;;4.00;3.60;;;17.60;83.50;;;;;;5068931;28;20396;-46
2022/08/12 01:44:34;;;;;;;3.83;3.42;;;17.70;83.70;;;;;;5069321;28;20547;-45
2022/08/12 01:47:13;;;;;;;5.15;4.05;;;17.60;83.50;;;;;;5068519;28;20036;-46
2022/08/12 01:50:15;;;;;;;5.28;4.18;;;17.60;83.60;;;;;;5069382;28;20501;-44
2022/08/12 01:52:55;;;;;;;8.07;4.25;;;17.60;84.40;;;;;;5026008;28;20025;-46
2022/08/12 01:55:23;;;;;;;4.70;3.78;;;17.60;84.20;;;;;;5064850;28;20029;-44
2022/08/12 01:57:58;;;;;;;6.25;4.15;;;17.60;84.40;;;;;;5069663;28;20221;-44
2022/08/12 02:00:34;;;;;;;9.80;4.15;;;17.50;84.60;;;;;;5068333;28;20025;-43
2022/08/12 02:12:18;;;;;;;5.53;3.47;;;17.60;83.60;;;;;;5088755;28;20046;-44
2022/08/12 02:15:14;;;;;;;6.30;4.25;;;17.50;84.10;;;;;;5089553;28;20024;-44
2022/08/12 02:18:06;;;;;;;5.70;3.90;;;17.50;84.70;;;;;;5088172;28;20176;-44
2022/08/12 02:20:31;;;;;;;6.90;4.30;;;17.40;84.50;;;;;;5088894;28;20086;-44
2022/08/12 02:22:59;;;;;;;5.78;4.20;;;17.50;84.50;;;;;;5088824;28;20027;-44
2022/08/12 02:25:32;;;;;;;4.38;3.97;;;17.40;85.30;;;;;;5089069;28;20024;-44
2022/08/12 02:27:59;;;;;;;3.85;3.42;;;17.40;86.00;;;;;;5087713;28;20054;-44
2022/08/12 02:30:30;;;;;;;3.92;3.40;;;17.30;85.80;;;;;;5089046;28;20053;-45
2022/08/12 02:32:58;;;;;;;4.55;4.10;;;17.30;86.90;;;;;;5089102;28;20055;-46
2022/08/12 02:35:27;;;;;;;4.95;4.22;;;17.20;87.60;;;;;;5084928;28;20029;-46
2022/08/12 02:37:56;;;;;;;4.43;4.03;;;17.10;88.50;;;;;;5080804;28;20050;-45
2022/08/12 02:40:23;;;;;;;5.07;4.57;;;17.00;88.60;;;;;;5088833;28;20069;-46
2022/08/12 02:42:57;;;;;;;4.75;4.32;;;17.00;89.40;;;;;;5088352;28;20101;-46
2022/08/12 02:45:41;;;;;;;6.40;4.82;;;17.00;89.50;;;;;;5088802;28;20509;-44
2022/08/12 02:48:09;;;;;;;6.95;4.90;;;16.90;90.10;;;;;;5079854;28;20090;-47
2022/08/12 02:50:44;;;;;;;5.88;4.43;;;16.90;90.30;;;;;;5074679;28;20040;-46
2022/08/12 02:53:10;;;;;;;6.60;4.40;;;16.80;90.60;;;;;;5068358;28;20024;-44
2022/08/12 02:55:36;;;;;;;5.95;4.10;;;16.80;90.90;;;;;;5068432;28;20175;-47
2022/08/12 02:58:08;;;;;;;6.13;4.10;;;16.80;91.00;;;;;;5068431;28;20051;-45
2022/08/12 03:00:38;;;;;;;5.65;4.18;;;16.80;91.40;;;;;;5068212;28;20036;-45
2022/08/12 03:03:12;;;;;;;6.13;4.18;;;16.80;91.80;;;;;;5068206;28;20123;-46
2022/08/12 03:06:01;;;;;;;6.18;4.25;;;16.70;92.30;;;;;;5069397;28;20036;-46
2022/08/12 03:08:30;;;;;;;4.80;4.30;;;16.70;92.60;;;;;;5078660;28;20038;-47
2022/08/12 03:11:02;;;;;;;5.07;4.60;;;16.70;92.70;;;;;;5083164;28;20103;-44
2022/08/12 03:13:29;;;;;;;7.88;3.92;;;16.60;93.20;;;;;;5078938;28;20024;-47
2022/08/12 03:15:56;;;;;;;5.38;4.30;;;16.70;93.70;;;;;;5088422;28;20032;-44
2022/08/12 03:18:30;;;;;;;6.03;4.47;;;16.60;93.90;;;;;;5088599;28;20255;-46
2022/08/12 03:21:00;;;;;;;4.80;4.30;;;16.60;94.40;;;;;;5087751;28;20032;-46
2022/08/12 03:23:27;;;;;;;6.22;4.68;;;16.60;94.60;;;;;;5088411;28;20028;-45
2022/08/12 03:25:54;;;;;;;8.02;5.05;;;16.60;94.50;;;;;;5086759;28;20032;-45
2022/08/12 03:31:07;;;;;;;4.88;4.43;;;16.60;94.60;;;;;;5088063;28;20035;-46
2022/08/12 03:33:36;;;;;;;5.57;4.72;;;16.60;94.80;;;;;;5088303;28;20402;-45
2022/08/12 03:36:06;;;;;;;5.85;4.65;;;16.60;95.10;;;;;;5088304;28;20052;-45
2022/08/12 03:38:36;;;;;;;;;;;16.50;95.00;;;;;;5088814;28;20024;-45
2022/08/12 04:01:00;;;;;;;5.50;4.80;;;16.20;98.20;;;;;;5067351;28;20035;-44
2022/08/12 04:06:10;;;;;;;4.55;4.15;;;16.20;98.20;;;;;;5067962;28;20035;-46
2022/08/12 04:08:37;;;;;;;6.32;4.60;;;16.10;98.30;;;;;;5068778;28;20407;-45
2022/08/12 04:13:47;;;;;;;5.85;4.72;;;16.20;98.30;;;;;;5072991;28;20089;-45
2022/08/12 04:16:15;;;;;;;6.85;4.60;;;16.20;98.30;;;;;;5071315;28;20028;-47
2022/08/12 04:18:42;;;;;;;13.38;5.30;;;16.20;98.50;;;;;;5069854;28;20021;-44
2022/08/12 04:21:09;;;;;;;7.45;5.32;;;16.20;98.40;;;;;;5070485;28;20024;-44
2022/08/12 04:23:37;;;;;;;8.73;4.80;;;16.20;98.40;;;;;;5071031;28;20099;-45
2022/08/12 04:26:05;;;;;;;9.38;5.05;;;16.20;98.30;;;;;;5070958;28;20103;-45
2022/08/12 04:28:32;;;;;;;7.75;5.07;;;16.20;98.50;;;;;;5071231;28;20397;-47
2022/08/12 04:30:57;;;;;;;9.93;4.80;;;16.20;98.40;;;;;;5070732;28;20643;-45
2022/08/12 04:33:24;;;;;;;7.13;5.22;;;16.20;98.20;;;;;;5071079;28;20033;-46
2022/08/12 04:35:50;;;;;;;7.72;4.68;;;16.20;98.10;;;;;;5069780;28;20505;-44
2022/08/12 04:38:18;;;;;;;8.50;5.25;;;16.20;98.30;;;;;;5071187;28;20029;-46
2022/08/12 04:40:45;;;;;;;10.63;5.40;;;16.30;98.70;;;;;;5069630;28;20444;-44
2022/08/12 04:43:11;;;;;;;7.10;4.72;;;16.20;99.00;;;;;;5075375;28;20021;-45
2022/08/12 04:45:37;;;;;;;11.70;5.25;;;16.20;98.70;;;;;;5090985;28;20016;-47
2022/08/12 04:48:04;;;;;;;6.95;4.78;;;16.30;98.80;;;;;;5089606;28;20024;-45
2022/08/12 04:50:30;;;;;;;9.00;5.38;;;16.30;98.90;;;;;;5090533;28;20491;-44
2022/08/12 04:52:59;;;;;;;7.00;5.30;;;16.30;98.60;;;;;;5088994;28;20028;-46
2022/08/12 04:55:25;;;;;;;7.05;4.75;;;16.30;98.60;;;;;;5090954;28;20042;-44
2022/08/12 04:57:52;;;;;;;6.82;4.95;;;16.30;98.40;;;;;;5077237;28;20021;-47
2022/08/12 05:00:18;;;;;;;7.60;4.60;;;16.30;98.50;;;;;;5069281;28;20028;-46
2022/08/12 05:02:43;;;;;;;5.93;5.18;;;16.30;98.60;;;;;;5069894;28;20048;-44
2022/08/12 05:05:17;;;;;;;10.35;5.10;;;16.30;98.90;;;;;;5070529;28;20536;-48
2022/08/12 05:07:43;;;;;;;7.22;4.90;;;16.30;98.50;;;;;;5070467;28;20464;-44
2022/08/12 05:10:09;;;;;;;5.55;4.80;;;16.40;98.60;;;;;;5070319;28;20056;-45
2022/08/12 05:12:39;;;;;;;10.52;5.88;;;16.40;98.50;;;;;;5072290;28;20319;-47
2022/08/12 05:15:06;;;;;;;6.28;4.97;;;16.40;98.40;;;;;;5086267;28;20023;-45
2022/08/12 05:17:31;;;;;;;10.20;5.50;;;16.40;98.40;;;;;;5090484;28;20275;-45
2022/08/12 05:19:57;;;;;;;8.32;5.38;;;16.50;98.30;;;;;;5078954;28;20031;-46
2022/08/12 05:22:22;;;;;;;7.80;4.93;;;16.50;98.90;;;;;;5084495;28;20103;-47
2022/08/12 05:24:48;;;;;;;5.25;4.60;;;16.50;99.00;;;;;;5068782;28;20027;-47
2022/08/12 05:27:13;;;;;;;5.35;4.75;;;16.60;98.70;;;;;;5077059;28;20483;-48
2022/08/12 05:29:39;;;;;;;6.25;4.40;;;16.60;98.90;;;;;;5072749;28;20388;-44
2022/08/12 05:32:07;;;;;;;6.28;4.82;;;16.70;98.70;;;;;;5072084;28;20150;-48
2022/08/12 05:34:33;;;;;;;5.68;4.70;;;16.70;98.60;;;;;;5070939;28;20548;-48
2022/08/12 05:36:58;;;;;;;9.55;4.45;;;16.80;97.90;;;;;;5086734;28;20028;-45
2022/08/12 05:39:24;;;;;;;6.88;4.82;;;16.80;98.10;;;;;;5090184;28;20495;-46
2022/08/12 05:41:49;;;;;;;7.90;4.43;;;16.90;98.10;;;;;;5088581;28;20038;-44
2022/08/12 05:44:16;;;;;;;7.80;5.07;;;16.90;98.10;;;;;;5089770;28;20096;-45
2022/08/12 05:46:41;;;;;;;8.18;4.85;;;16.90;97.60;;;;;;5082573;28;20604;-44
2022/08/12 05:49:08;;;;;;;7.30;4.15;;;17.00;97.80;;;;;;5081579;28;20040;-44
2022/08/12 05:51:36;;;;;;;9.85;5.13;;;17.10;97.00;;;;;;5085083;28;20031;-44
2022/08/12 05:54:02;;;;;;;11.43;5.70;;;17.10;97.10;;;;;;5088859;28;20312;-44
2022/08/12 05:56:33;;;;;;;11.55;4.80;;;17.20;96.70;;;;;;5073259;28;20521;-44
2022/08/12 05:59:01;;;;;;;8.45;4.93;;;17.30;96.00;;;;;;5079334;28;20023;-45
2022/08/12 06:01:27;;;;;;;5.68;4.93;;;17.40;96.00;;;;;;5080739;28;20052;-46
2022/08/12 06:03:53;;;;;;;4.72;4.22;;;17.40;95.70;;;;;;5077697;28;20028;-45
2022/08/12 06:06:20;;;;;;;10.13;5.50;;;17.50;95.40;;;;;;5084389;28;20028;-44
2022/08/12 06:08:47;;;;;;;9.68;4.45;;;17.60;95.40;;;;;;5082976;28;20024;-45
2022/08/12 06:11:16;;;;;;;8.05;4.75;;;17.70;95.20;;;;;;5079017;28;20033;-45
2022/08/12 06:13:42;;;;;;;6.90;4.15;;;17.80;94.90;;;;;;5081628;28;20030;-44
2022/08/12 06:16:09;;;;;;;6.15;4.47;;;17.80;94.70;;;;;;5081100;28;20110;-45
2022/08/12 06:18:38;;;;;;;5.35;4.18;;;17.90;94.80;;;;;;5077367;28;20085;-44
2022/08/12 06:21:06;;;;;;;5.30;4.18;;;18.00;94.70;;;;;;5078876;28;20016;-44
2022/08/12 06:23:32;;;;;;;6.38;4.53;;;18.10;94.80;;;;;;5068815;28;20532;-45
2022/08/12 06:25:58;;;;;;;10.02;4.40;;;18.20;94.50;;;;;;5068130;28;20036;-46
2022/08/12 06:28:24;;;;;;;7.70;3.83;;;18.30;94.40;;;;;;5076500;28;20025;-46
2022/08/12 06:30:51;;;;;;;8.82;4.10;;;18.40;94.10;;;;;;5088100;28;20027;-46
2022/08/12 06:33:17;;;;;;;7.25;4.35;;;18.60;93.90;;;;;;5088613;28;20063;-48
2022/08/12 06:35:44;;;;;;;6.20;4.25;;;18.60;93.90;;;;;;5085536;28;20036;-46
2022/08/12 06:38:14;;;;;;;9.95;5.00;;;18.70;93.70;;;;;;5051334;28;20432;-46
2022/08/12 06:43:24;;;;;;;8.00;3.97;;;19.00;92.90;;;;;;5046958;28;19986;-49
2022/08/12 06:45:50;;;;;;;9.68;4.40;;;19.10;92.30;;;;;;5065376;28;20488;-46
2022/08/12 06:48:16;;;;;;;6.45;3.72;;;19.30;91.10;;;;;;5070296;28;20060;-46
2022/08/12 06:50:43;;;;;;;8.98;4.18;;;19.40;91.20;;;;;;5065956;28;20134;-47
2022/08/12 06:53:09;;;;;;;10.68;4.90;;;19.50;90.60;;;;;;5067099;28;20017;-45
2022/08/12 06:55:36;;;;;;;12.10;4.90;;;19.70;89.40;;;;;;5066306;28;20013;-45
2022/08/12 06:58:04;;;;;;;9.05;3.85;;;19.80;86.70;;;;;;5073410;28;20029;-45
2022/08/12 07:00:33;;;;;;;12.82;3.83;;;20.00;86.60;;;;;;5085846;28;20103;-45
2022/08/12 07:02:59;;;;;;;4.00;3.35;;;20.20;84.60;;;;;;5086593;28;20036;-48
2022/08/12 07:05:26;;;;;;;7.88;3.88;;;20.40;82.60;;;;;;5086402;28;20044;-46
2022/08/12 07:07:57;;;;;;;5.82;3.33;;;20.60;82.00;;;;;;5087796;28;20549;-46
2022/08/12 07:10:24;;;;;;;7.32;4.15;;;20.80;82.00;;;;;;5087787;28;20032;-45
2022/08/12 07:12:53;;;;;;;5.85;3.15;;;20.90;82.00;;;;;;5076639;28;20146;-45
2022/08/12 07:15:24;;;;;;;6.10;3.25;;;21.00;82.30;;;;;;5077520;28;20432;-47
2022/08/12 07:17:59;;;;;;;7.25;3.40;;;21.20;80.10;;;;;;5088363;28;20039;-45
2022/08/12 07:20:28;;;;;;;99.15;70.18;;;21.50;78.90;;;;;;5087776;28;20514;-45
2022/08/12 07:22:54;;;;;;;180.88;128.50;;;21.60;78.30;;;;;;5087170;28;20024;-45
2022/08/12 07:25:33;;;;;;;28.55;20.63;;;21.70;77.80;;;;;;5086349;28;20035;-47
2022/08/12 07:28:00;;;;;;;10.65;4.35;;;21.90;76.20;;;;;;5080072;28;20016;-44
2022/08/12 07:30:27;;;;;;;5.35;2.97;;;22.10;74.80;;;;;;5077918;28;20028;-46
2022/08/12 07:32:53;;;;;;;6.90;3.13;;;22.30;74.80;;;;;;5087177;28;20548;-44
2022/08/12 07:35:19;;;;;;;10.30;3.08;;;22.40;71.90;;;;;;5087873;28;20031;-45
2022/08/12 07:37:46;;;;;;;6.45;2.88;;;22.70;72.70;;;;;;5079658;28;20033;-46
2022/08/12 07:40:12;;;;;;;4.32;2.83;;;22.80;73.00;;;;;;5046302;28;20026;-46
2022/08/12 07:42:39;;;;;;;3.60;3.10;;;23.00;70.50;;;;;;5045169;28;20025;-44
2022/08/12 07:45:06;;;;;;;4.95;2.92;;;23.10;70.40;;;;;;5050836;28;20033;-45
2022/08/12 07:47:33;;;;;;;6.13;2.95;;;23.30;70.10;;;;;;5050959;28;20028;-46
2022/08/12 07:50:00;;;;;;;6.45;2.58;;;23.50;67.70;;;;;;5050666;28;20063;-44
2022/08/12 07:52:26;;;;;;;5.63;2.90;;;23.70;65.80;;;;;;5050629;28;20017;-46
2022/08/12 07:54:52;;;;;;;7.88;3.00;;;23.90;65.80;;;;;;5051308;28;20051;-45
2022/08/12 07:57:18;;;;;;;9.48;2.85;;;24.20;64.90;;;;;;5057884;28;20457;-48
2022/08/12 07:59:43;;;;;;;7.53;2.60;;;24.50;64.70;;;;;;5081939;28;20175;-45
2022/08/12 08:02:09;;;;;;;7.82;3.00;;;24.70;64.90;;;;;;5091221;28;20054;-45
2022/08/12 08:07:19;;;;;;;5.47;2.92;;;25.00;65.70;;;;;;5060419;28;20082;-47
2022/08/12 08:09:45;;;;;;;5.95;2.58;;;25.30;65.50;;;;;;5070466;28;20028;-45
2022/08/12 08:14:54;;;;;;;4.25;3.33;;;25.90;62.20;;;;;;5073405;28;20091;-45
2022/08/12 08:17:21;;;;;;;5.97;3.47;;;26.10;62.30;;;;;;5088721;28;20573;-46
2022/08/12 08:19:51;;;;;;;7.40;3.40;;;26.40;61.10;;;;;;5089401;28;20024;-46
2022/08/12 08:22:21;;;;;;;5.95;3.78;;;26.90;60.10;;;;;;5080525;28;20394;-45
2022/08/12 08:24:50;;;;;;;7.00;3.10;;;27.60;56.50;;;;;;5084105;28;20021;-46
2022/08/12 08:27:15;;;;;;;6.95;2.88;;;28.60;57.20;;;;;;5089520;28;20024;-46
2022/08/12 08:29:43;;;;;;;5.47;2.55;;;30.10;54.40;;;;;;5090643;28;20509;-46
2022/08/12 08:32:09;;;;;;;9.45;3.00;;;31.60;52.90;;;;;;5090126;28;20023;-46
2022/08/12 08:34:35;;;;;;;7.75;2.13;;;33.20;48.20;;;;;;5091071;28;20028;-45
2022/08/12 08:37:01;;;;;;;9.57;2.28;;;34.20;45.50;;;;;;5088923;28;20530;-46
2022/08/12 08:39:27;;;;;;;3.47;2.05;;;35.40;45.00;;;;;;5074093;28;20096;-45
2022/08/12 08:44:40;;;;;;;3.15;1.42;;;37.60;39.20;;;;;;5067412;28;20043;-46
2022/08/12 08:47:07;;;;;;;3.10;1.85;;;38.40;38.30;;;;;;5070037;28;20071;-47
2022/08/12 08:49:35;;;;;;;2.13;1.70;;;38.30;37.90;;;;;;5071775;28;20120;-46
2022/08/12 08:52:01;;;;;;;2.22;1.60;;;39.70;36.40;;;;;;5067830;28;20082;-48
2022/08/12 08:54:32;;;;;;;3.13;1.50;;;39.70;36.90;;;;;;5071448;28;20020;-48
2022/08/12 08:57:01;;;;;;;3.67;1.83;;;40.50;36.30;;;;;;5070986;28;20518;-49
2022/08/12 08:59:27;;;;;;;4.45;1.83;;;40.90;35.30;;;;;;5071095;28;20074;-48
2022/08/12 09:01:53;;;;;;;3.90;1.70;;;41.50;33.90;;;;;;5070646;28;20492;-49
2022/08/12 09:04:22;;;;;;;5.82;2.00;;;42.40;33.50;;;;;;5070262;28;20044;-49
2022/08/12 09:06:48;;;;;;;3.10;1.48;;;41.50;32.70;;;;;;5068931;28;20021;-47
2022/08/12 09:09:16;;;;;;;3.10;1.58;;;41.60;33.70;;;;;;5078652;28;20549;-46
2022/08/12 09:14:26;;;;;;;2.30;1.88;;;42.20;31.70;;;;;;5084740;28;20046;-48
2022/08/12 09:16:51;;;;;;;2.50;1.92;;;41.70;33.60;;;;;;5084981;28;20032;-48
2022/08/12 09:19:17;;;;;;;5.47;1.98;;;43.00;32.70;;;;;;5072469;28;20033;-47
2022/08/12 09:21:47;;;;;;;6.47;1.90;;;42.90;32.10;;;;;;5081542;28;20028;-48
2022/08/12 09:24:17;;;;;;;7.40;1.83;;;42.00;32.50;;;;;;5090723;28;20470;-47
2022/08/12 09:26:45;;;;;;;2.33;1.67;;;42.20;31.50;;;;;;5090399;28;20548;-49
2022/08/12 09:29:12;;;;;;;2.42;1.63;;;43.10;31.00;;;;;;5090177;28;20075;-48
2022/08/12 09:31:39;;;;;;;4.55;1.60;;;43.50;31.40;;;;;;5089636;28;20032;-47
2022/08/12 09:34:05;;;;;;;1.80;1.55;;;43.10;31.80;;;;;;5089781;28;20039;-51
2022/08/12 09:36:31;;;;;;;2.83;1.50;;;43.30;31.40;;;;;;5085111;28;20024;-47
2022/08/12 09:38:56;;;;;;;3.47;1.65;;;43.70;31.50;;;;;;5084552;28;20532;-48
2022/08/12 09:41:22;;;;;;;4.95;1.80;;;43.50;31.10;;;;;;5090587;28;20051;-48
2022/08/12 09:46:32;;;;;;;4.65;1.77;;;44.80;30.70;;;;;;5071439;28;20039;-49
2022/08/12 09:48:58;;;;;;;2.40;1.80;;;44.50;30.40;;;;;;5070927;28;20025;-48
2022/08/12 09:51:25;;;;;;;3.08;1.75;;;43.60;30.40;;;;;;5067466;28;20048;-50
2022/08/12 09:53:51;;;;;;;3.65;1.58;;;44.70;30.40;;;;;;5072638;28;20023;-47
2022/08/12 09:56:18;;;;;;;3.28;1.48;;;44.10;30.00;;;;;;5081004;28;20056;-47
2022/08/12 09:58:46;;;;;;;2.95;1.90;;;42.50;30.50;;;;;;5068922;28;20487;-49
2022/08/12 10:01:12;;;;;;;3.97;1.63;;;42.20;31.50;;;;;;5069152;28;20028;-47
2022/08/12 10:03:42;;;;;;;2.15;1.67;;;43.00;30.90;;;;;;5069796;28;20036;-48
2022/08/12 10:06:09;;;;;;;1.70;1.50;;;43.40;30.60;;;;;;5068990;28;20356;-47
2022/08/12 10:08:36;;;;;;;6.38;1.80;;;43.60;30.30;;;;;;5070054;28;20024;-48
2022/08/12 10:13:51;;;;;;;16.73;13.20;;;44.60;30.70;;;;;;5073961;28;20035;-51
2022/08/12 10:16:27;;;;;;;3.35;2.17;;;45.10;29.60;;;;;;5082094;28;20081;-48
2022/08/12 10:19:00;;;;;;;1.60;1.40;;;44.80;30.00;;;;;;5090614;28;20137;-50
2022/08/12 10:21:37;;;;;;;3.63;1.55;;;43.90;30.00;;;;;;5089961;28;20024;-47
2022/08/12 10:24:04;;;;;;;5.80;1.52;;;45.10;29.60;;;;;;5080800;28;20057;-49
2022/08/12 10:31:59;;;;;;;4.18;1.88;;;45.20;29.20;;;;;;5047500;28;20507;-49
2022/08/12 10:34:25;;;;;;;1.40;1.30;;;44.90;30.00;;;;;;5055565;28;20028;-49
2022/08/12 10:37:00;;;;;;;1.60;1.48;;;44.90;29.70;;;;;;5067746;28;20044;-50
2022/08/12 10:39:32;;;;;;;5.63;1.67;;;44.90;29.50;;;;;;5062966;28;20383;-49
2022/08/12 10:44:46;;;;;;;2.25;1.55;;;44.10;29.70;;;;;;5048230;28;20396;-47
2022/08/12 10:47:12;;;;;;;2.33;1.65;;;44.20;30.00;;;;;;5048053;28;20029;-50
2022/08/12 10:49:38;;;;;;;2.83;1.85;;;43.70;30.10;;;;;;5066051;28;20032;-47
2022/08/12 10:52:04;;;;;;;2.38;1.70;;;43.10;30.10;;;;;;5082584;28;21246;-47
2022/08/12 10:54:30;;;;;;;4.70;2.30;;;43.60;30.20;;;;;;5088217;28;20423;-48
2022/08/12 10:56:57;;;;;;;2.97;1.77;;;44.10;30.20;;;;;;5087837;28;20024;-46
2022/08/12 10:59:23;;;;;;;3.20;1.80;;;44.10;30.50;;;;;;5081476;28;20546;-50
2022/08/12 11:01:50;;;;;;;2.47;1.73;;;45.70;29.70;;;;;;5064970;28;20024;-49
2022/08/12 11:04:16;;;;;;;3.05;1.35;;;45.50;29.70;;;;;;5063953;28;20052;-50
2022/08/12 11:06:52;;;;;;;3.88;1.65;;;45.10;29.60;;;;;;5064304;28;20055;-49
2022/08/12 11:09:20;;;;;;;3.78;1.58;;;44.40;29.80;;;;;;5069969;28;20471;-48
2022/08/12 11:11:47;;;;;;;3.03;1.97;;;44.30;30.00;;;;;;5064988;28;20086;-50
2022/08/12 11:14:16;;;;;;;4.20;1.70;;;44.00;29.70;;;;;;5058453;28;20322;-50
2022/08/12 11:16:45;;;;;;;1.73;1.35;;;43.80;29.80;;;;;;5079500;28;20028;-49
2022/08/12 11:19:13;;;;;;;3.88;1.73;;;44.10;30.00;;;;;;5090936;28;20035;-50
2022/08/12 11:21:39;;;;;;;;;;;44.40;29.60;;;;;;5093836;28;20110;-48
2022/08/12 11:24:05;;;;;;;2.45;1.48;;;44.80;29.40;;;;;;5093993;28;20327;-49
2022/08/12 11:26:31;;;;;;;2.65;1.42;;;44.90;29.40;;;;;;5093865;28;20024;-47
2022/08/12 11:28:56;;;;;;;1.80;1.65;;;43.90;29.60;;;;;;5082430;28;20047;-48
2022/08/12 11:31:22;;;;;;;6.15;1.85;;;44.30;29.70;;;;;;5089768;28;20043;-46
2022/08/12 11:33:48;;;;;;;2.30;1.55;;;44.80;29.90;;;;;;5090992;28;20051;-47
2022/08/12 11:36:15;;;;;;;3.38;1.60;;;45.10;29.20;;;;;;5092277;28;20012;-47
2022/08/12 11:38:41;;;;;;;2.25;1.50;;;44.50;29.10;;;;;;5092305;28;20016;-50
2022/08/12 11:41:06;;;;;;;2.75;1.38;;;43.60;29.10;;;;;;5091736;28;20119;-47
2022/08/12 11:43:32;;;;;;;2.70;1.38;;;43.70;29.90;;;;;;5092210;28;20036;-47
2022/08/12 11:45:58;;;;;;;5.53;1.55;;;43.30;29.50;;;;;;5092239;28;20024;-47
2022/08/12 11:48:24;;;;;;;2.17;1.50;;;43.60;29.90;;;;;;5092005;28;20524;-48
2022/08/12 11:50:50;;;;;;;4.13;1.58;;;43.80;29.80;;;;;;5091476;28;20238;-49
2022/08/12 11:53:15;;;;;;;6.75;1.58;;;43.80;29.60;;;;;;5092019;28;20097;-49
2022/08/12 11:55:41;;;;;;;5.20;1.20;;;44.00;29.40;;;;;;5091935;28;20027;-47
2022/08/12 11:58:06;;;;;;;1.92;1.50;;;44.40;29.30;;;;;;5087909;28;20028;-51
2022/08/12 12:00:32;;;;;;;4.90;1.63;;;44.30;29.20;;;;;;5083230;28;20616;-47
2022/08/12 12:02:58;;;;;;;2.60;1.70;;;43.00;29.50;;;;;;5091603;28;20056;-50
2022/08/12 12:05:23;;;;;;;1.73;1.35;;;43.00;29.60;;;;;;5092141;28;20034;-50
2022/08/12 12:07:49;;;;;;;3.17;1.40;;;42.90;29.60;;;;;;5067907;28;20143;-46
2022/08/12 12:10:18;;;;;;;4.35;1.50;;;42.80;30.20;;;;;;5052422;28;20056;-47
2022/08/12 12:12:43;;;;;;;;;;;42.30;30.00;;;;;;5050699;28;20041;-48
2022/08/12 12:15:09;;;;;;;2.38;1.60;;;41.70;30.00;;;;;;5064118;28;19929;-50
2022/08/12 12:17:37;;;;;;;1.80;1.70;;;41.10;30.70;;;;;;5080687;28;20112;-48
2022/08/12 12:20:08;;;;;;;5.50;1.30;;;40.20;30.80;;;;;;5090968;28;20471;-47
2022/08/12 12:22:38;;;;;;;4.15;1.60;;;39.70;31.20;;;;;;5090141;28;20028;-47
2022/08/12 12:25:04;;;;;;;5.53;1.65;;;39.50;31.50;;;;;;5086807;28;20305;-46
2022/08/12 12:27:47;;;;;;;2.63;1.80;;;39.20;32.00;;;;;;5066751;28;20027;-46
2022/08/12 12:30:13;;;;;;;2.83;1.63;;;38.60;31.10;;;;;;5069668;28;20036;-47
2022/08/12 12:32:38;;;;;;;3.70;1.73;;;38.30;31.90;;;;;;5078514;28;20040;-47
2022/08/12 12:35:04;;;;;;;5.80;2.17;;;38.10;31.80;;;;;;5085273;28;20073;-46
2022/08/12 12:37:30;;;;;;;1.77;1.67;;;38.00;32.40;;;;;;5080662;28;20016;-45
2022/08/12 12:39:58;;;;;;;1.83;1.40;;;37.80;32.60;;;;;;5076008;28;20024;-46
2022/08/12 12:42:23;;;;;;;2.50;1.48;;;37.20;32.10;;;;;;5073234;28;20123;-46
2022/08/12 12:44:49;;;;;;;5.88;1.83;;;37.10;32.90;;;;;;5084369;28;20103;-46
2022/08/12 12:47:15;;;;;;;2.10;1.60;;;36.60;33.20;;;;;;5085834;28;20073;-46
2022/08/12 12:49:41;;;;;;;3.75;1.50;;;36.40;33.70;;;;;;5083185;28;20055;-46
2022/08/12 12:52:06;;;;;;;3.20;1.65;;;36.20;34.10;;;;;;5085837;28;20055;-49
2022/08/12 12:54:32;;;;;;;2.92;1.90;;;36.00;34.30;;;;;;5081767;28;20515;-46
2022/08/12 12:56:57;;;;;;;3.83;1.80;;;36.00;34.60;;;;;;5072124;28;20020;-47
2022/08/12 12:59:26;;;;;;;5.30;1.85;;;36.00;33.90;;;;;;5072190;28;20031;-45
2022/08/12 13:01:52;;;;;;;2.15;1.40;;;36.00;33.20;;;;;;5068294;28;20115;-49
2022/08/12 13:04:17;;;;;;;3.58;1.70;;;36.00;33.10;;;;;;5069999;28;20593;-46
2022/08/12 13:06:45;;;;;;;2.60;2.20;;;35.80;33.50;;;;;;5069952;28;20051;-46
2022/08/12 13:09:12;;;;;;;8.20;2.38;;;35.60;34.20;;;;;;5069561;28;20111;-45
2022/08/12 13:11:38;;;;;;;3.90;1.98;;;35.70;34.30;;;;;;5081599;28;20039;-45
2022/08/12 13:14:04;;;;;;;3.08;1.75;;;35.70;34.00;;;;;;5082995;28;20302;-45
2022/08/12 13:16:29;;;;;;;4.68;1.35;;;35.90;34.50;;;;;;5074005;28;20039;-45
2022/08/12 13:18:55;;;;;;;2.30;1.48;;;35.90;34.30;;;;;;5069608;28;20020;-49
2022/08/12 13:21:21;;;;;;;7.28;1.70;;;35.80;34.40;;;;;;5069360;28;20511;-46
2022/08/12 13:23:49;;;;;;;2.15;1.45;;;35.80;34.10;;;;;;5076861;28;20036;-46
2022/08/12 13:26:17;;;;;;;3.65;1.58;;;35.70;34.50;;;;;;5075066;28;20039;-48
2022/08/12 13:28:44;;;;;;;4.30;2.00;;;35.00;34.40;;;;;;5082590;28;20046;-45
2022/08/12 13:31:11;;;;;;;4.32;1.60;;;35.30;35.00;;;;;;5089225;28;20034;-46
2022/08/12 13:33:37;;;;;;;5.10;1.85;;;34.90;34.70;;;;;;5080672;28;20316;-49
2022/08/12 13:36:03;;;;;;;5.45;2.28;;;34.40;35.30;;;;;;5083423;28;20024;-46
2022/08/12 13:38:40;;;;;;;3.67;2.13;;;34.50;36.50;;;;;;5081906;28;20021;-49
2022/08/12 13:41:17;;;;;;;4.45;1.95;;;34.50;35.80;;;;;;5078598;28;20024;-47
2022/08/12 13:43:42;;;;;;;4.22;1.45;;;34.70;35.80;;;;;;5088278;28;20016;-45
2022/08/12 13:46:12;;;;;;;2.47;1.30;;;34.60;36.10;;;;;;5088230;28;20078;-48
2022/08/12 13:48:38;;;;;;;4.13;1.60;;;34.70;35.40;;;;;;5086889;28;20355;-45
2022/08/12 13:51:04;;;;;;;4.25;1.50;;;34.80;35.30;;;;;;5080524;28;20043;-48
2022/08/12 13:53:29;;;;;;;6.07;1.50;;;34.90;35.10;;;;;;5089811;28;20056;-49
2022/08/12 13:55:55;;;;;;;3.42;1.30;;;34.50;35.00;;;;;;5089741;28;20145;-47
2022/08/12 13:58:21;;;;;;;3.95;1.10;;;34.70;35.20;;;;;;5089919;28;20030;-46
2022/08/12 14:00:49;;;;;;;2.67;1.25;;;34.80;35.40;;;;;;5088921;28;20096;-49
2022/08/12 14:03:20;;;;;;;4.93;1.38;;;34.80;35.60;;;;;;5089285;28;20024;-47
2022/08/12 14:05:46;;;;;;;1.20;1.10;;;34.60;35.40;;;;;;5089874;28;20107;-48
2022/08/12 14:08:15;;;;;;;3.90;1.20;;;34.30;35.60;;;;;;5089760;28;20111;-46
2022/08/12 14:10:47;;;;;;;1.67;1.58;;;34.30;36.10;;;;;;5089058;28;20082;-48
2022/08/12 14:13:19;;;;;;;1.48;1.30;;;34.60;36.00;;;;;;5088940;28;20034;-47
2022/08/12 14:15:47;;;;;;;1.00;1.00;;;34.80;35.50;;;;;;5087341;28;20027;-46
2022/08/12 14:18:17;;;;;;;2.33;1.38;;;35.00;36.10;;;;;;5080608;28;20135;-46
2022/08/12 14:20:50;;;;;;;1.23;1.10;;;34.80;35.70;;;;;;5088820;28;20077;-48
2022/08/12 14:23:17;;;;;;;5.05;1.20;;;34.90;35.20;;;;;;5079671;28;20086;-46
2022/08/12 14:25:43;;;;;;;2.05;1.50;;;34.60;35.20;;;;;;5089337;28;20032;-48
2022/08/12 14:28:14;;;;;;;2.67;1.33;;;34.80;35.50;;;;;;5089542;28;20449;-46
2022/08/12 14:30:55;;;;;;;4.22;1.10;;;34.60;35.70;;;;;;5088758;28;20028;-46
2022/08/12 14:33:22;;;;;;;3.42;1.40;;;34.60;35.70;;;;;;5088991;28;20020;-46
2022/08/12 14:35:49;;;;;;;3.72;1.08;;;34.60;35.70;;;;;;5087816;28;20112;-46
2022/08/12 14:38:21;;;;;;;1.38;1.13;;;34.80;35.80;;;;;;5088500;28;20363;-46
2022/08/12 14:40:55;;;;;;;2.67;1.20;;;34.70;35.80;;;;;;5088263;28;20467;-48
2022/08/12 14:43:21;;;;;;;2.60;1.10;;;34.50;35.50;;;;;;5088634;28;20032;-49
2022/08/12 14:45:47;;;;;;;1.73;1.02;;;34.50;35.40;;;;;;5089054;28;20282;-49
2022/08/12 14:48:15;;;;;;;1.45;0.85;;;34.40;36.10;;;;;;5088516;28;20055;-48
2022/08/12 14:50:41;;;;;;;4.88;0.90;;;34.40;35.90;;;;;;5088026;28;20535;-47